createdAt,value
2023-01-19T00:01:26.108Z,4.34
2023-01-19T00:03:53.428Z,4.28
2023-01-19T00:06:20.576Z,4.23
2023-01-19T00:08:49.723Z,4.21
2023-01-19T00:11:18.039Z,4.13
2023-01-19T00:13:51.921Z,4.18
2023-01-19T00:16:22.913Z,4.21
2023-01-19T00:18:51.783Z,4.21
2023-01-19T00:21:20.029Z,4.23
2023-01-19T00:23:47.589Z,4.23
2023-01-19T00:26:18.902Z,4.16
2023-01-19T00:28:46.064Z,4.17
2023-01-19T00:31:13.513Z,4.18
2023-01-19T00:33:40.558Z,4.16
2023-01-19T00:36:08.011Z,4.11
2023-01-19T00:38:35.335Z,4.13
2023-01-19T00:41:02.347Z,4.13
2023-01-19T00:43:29.314Z,4.08
2023-01-19T00:45:56.709Z,4.01
2023-01-19T00:48:23.859Z,4.01
2023-01-19T00:50:50.911Z,4.06
2023-01-19T00:53:18.284Z,4.05
2023-01-19T00:55:45.278Z,4.09
2023-01-19T00:58:12.353Z,4.05
2023-01-19T01:00:39.664Z,4.02
2023-01-19T01:03:06.798Z,3.96
2023-01-19T01:05:35.446Z,3.94
2023-01-19T01:08:02.804Z,3.93
2023-01-19T01:10:29.895Z,3.94
2023-01-19T01:12:59.110Z,3.94
2023-01-19T01:15:44.290Z,3.84
2023-01-19T01:18:11.292Z,3.84
2023-01-19T01:20:38.313Z,3.84
2023-01-19T01:23:05.621Z,3.81
2023-01-19T01:25:37.445Z,3.81
2023-01-19T01:28:08.638Z,3.81
2023-01-19T01:30:40.011Z,3.80
2023-01-19T01:33:08.112Z,3.79
2023-01-19T01:35:35.420Z,3.75
2023-01-19T01:38:02.520Z,3.79
2023-01-19T01:40:29.986Z,3.80
2023-01-19T01:42:57.304Z,3.76
2023-01-19T01:45:24.254Z,3.74
2023-01-19T01:47:52.020Z,3.70
2023-01-19T01:50:28.656Z,3.60
2023-01-19T01:53:07.308Z,3.61
2023-01-19T01:55:49.122Z,3.63
2023-01-19T01:58:16.800Z,3.57
2023-01-19T02:01:02.999Z,3.51
2023-01-19T02:03:32.359Z,3.49
2023-01-19T02:06:01.789Z,3.51
2023-01-19T02:08:55.883Z,3.47
2023-01-19T02:11:42.227Z,3.41
2023-01-19T02:14:09.242Z,3.34
2023-01-19T02:16:37.658Z,3.33
2023-01-19T02:19:08.252Z,3.22
2023-01-19T02:21:43.996Z,3.14
2023-01-19T02:24:11.787Z,3.04
2023-01-19T02:26:45.559Z,3.03
2023-01-19T02:29:19.026Z,2.98
2023-01-19T02:31:46.936Z,2.96
2023-01-19T02:34:17.747Z,2.95
2023-01-19T02:37:03.468Z,2.88
2023-01-19T02:39:47.743Z,2.90
2023-01-19T02:42:19.901Z,2.86
2023-01-19T02:44:50.844Z,2.84
2023-01-19T02:47:18.410Z,2.90
2023-01-19T02:49:53.957Z,2.91
2023-01-19T02:52:21.460Z,2.78
2023-01-19T02:55:08.652Z,2.79
2023-01-19T02:57:36.231Z,2.82
2023-01-19T03:00:25.651Z,2.86
2023-01-19T03:03:05.491Z,2.96
2023-01-19T03:06:01.592Z,3.00
2023-01-19T03:09:18.272Z,2.96
2023-01-19T03:11:51.810Z,2.89
2023-01-19T03:14:25.180Z,2.89
2023-01-19T03:16:57.455Z,2.85
2023-01-19T03:19:39.296Z,2.93
2023-01-19T03:22:22.429Z,2.93
2023-01-19T03:24:51.735Z,3.01
2023-01-19T03:27:26.333Z,2.98
2023-01-19T03:29:58.031Z,3.07
2023-01-19T03:32:48.792Z,2.94
2023-01-19T03:35:18.358Z,2.84
2023-01-19T03:37:47.944Z,2.83
2023-01-19T03:40:15.578Z,2.88
2023-01-19T03:42:44.808Z,2.76
2023-01-19T03:45:13.213Z,2.68
2023-01-19T03:47:41.199Z,2.64
2023-01-19T03:50:14.721Z,2.59
2023-01-19T03:52:42.174Z,2.53
2023-01-19T03:55:10.411Z,2.54
2023-01-19T03:57:37.614Z,2.46
2023-01-19T04:00:05.522Z,2.49
2023-01-19T04:02:39.032Z,2.62
2023-01-19T04:05:06.891Z,2.68
2023-01-19T04:07:33.948Z,2.69
2023-01-19T04:10:01.058Z,2.59
2023-01-19T04:12:28.406Z,2.51
2023-01-19T04:14:55.746Z,2.49
2023-01-19T04:17:22.839Z,2.49
2023-01-19T04:19:50.211Z,2.54
2023-01-19T04:22:17.260Z,2.44
2023-01-19T04:24:44.355Z,2.44
2023-01-19T04:27:11.739Z,2.29
2023-01-19T04:29:38.857Z,2.22
2023-01-19T04:32:06.027Z,2.16
2023-01-19T04:34:33.592Z,2.14
2023-01-19T04:37:00.763Z,2.02
2023-01-19T04:39:27.846Z,2.02
2023-01-19T04:41:57.452Z,1.96
2023-01-19T04:44:24.572Z,1.78
2023-01-19T04:46:52.216Z,1.83
2023-01-19T04:49:19.679Z,1.81
2023-01-19T04:51:47.223Z,1.82
2023-01-19T04:54:14.414Z,1.79
2023-01-19T04:56:41.889Z,1.77
2023-01-19T04:59:09.097Z,1.75
2023-01-19T05:01:36.863Z,1.77
2023-01-19T05:04:06.463Z,1.69
2023-01-19T05:06:34.718Z,1.68
2023-01-19T05:09:01.962Z,1.58
2023-01-19T05:11:29.366Z,1.58
2023-01-19T05:13:56.498Z,1.52
2023-01-19T05:16:23.781Z,1.53
2023-01-19T05:18:51.267Z,1.52
2023-01-19T05:21:18.493Z,1.49
2023-01-19T05:23:45.640Z,1.57
2023-01-19T05:26:13.119Z,1.53
2023-01-19T05:28:40.266Z,2.03
2023-01-19T05:31:07.535Z,2.48
2023-01-19T05:33:34.999Z,2.35
2023-01-19T05:36:02.188Z,2.13
2023-01-19T05:38:35.283Z,2.02
2023-01-19T05:41:03.377Z,2.00
2023-01-19T05:43:30.513Z,1.94
2023-01-19T05:45:57.619Z,1.89
2023-01-19T05:48:25.046Z,1.98
2023-01-19T05:50:57.304Z,2.00
2023-01-19T05:53:24.785Z,1.99
2023-01-19T05:55:51.892Z,1.91
2023-01-19T05:58:18.968Z,1.91
2023-01-19T06:00:46.841Z,1.87
2023-01-19T06:03:14.263Z,1.85
2023-01-19T06:05:41.367Z,1.84
2023-01-19T06:08:08.613Z,1.80
2023-01-19T06:10:36.053Z,1.82
2023-01-19T06:13:03.462Z,1.74
2023-01-19T06:15:30.978Z,1.71
2023-01-19T06:17:58.351Z,1.73
2023-01-19T06:20:25.462Z,1.77
2023-01-19T06:22:52.606Z,1.75
2023-01-19T06:25:20.007Z,1.79
2023-01-19T06:27:47.195Z,1.73
2023-01-19T06:30:14.814Z,1.69
2023-01-19T06:32:42.377Z,1.57
2023-01-19T06:35:09.755Z,1.64
2023-01-19T06:37:36.866Z,1.69
2023-01-19T06:40:04.872Z,1.71
2023-01-19T06:42:32.158Z,1.73
2023-01-19T06:44:59.473Z,1.74
2023-01-19T06:47:26.906Z,1.80
2023-01-19T06:49:54.096Z,1.86
2023-01-19T06:52:21.256Z,1.82
2023-01-19T06:54:48.762Z,1.88
2023-01-19T06:57:17.251Z,1.89
2023-01-19T06:59:44.594Z,1.94
2023-01-19T07:02:27.272Z,1.95
2023-01-19T07:04:56.621Z,2.00
2023-01-19T07:07:24.125Z,2.03
2023-01-19T07:09:51.510Z,2.03
2023-01-19T07:12:21.807Z,2.03
2023-01-19T07:14:49.634Z,2.08
2023-01-19T07:17:16.975Z,2.12
2023-01-19T07:19:44.227Z,2.18
2023-01-19T07:22:11.626Z,2.23
2023-01-19T07:24:38.824Z,2.25
2023-01-19T07:27:05.946Z,2.35
2023-01-19T07:29:33.316Z,2.38
2023-01-19T07:32:00.789Z,2.35
2023-01-19T07:34:28.357Z,2.35
2023-01-19T07:36:56.572Z,2.40
2023-01-19T07:39:23.709Z,2.42
2023-01-19T07:41:50.940Z,2.44
2023-01-19T07:44:18.885Z,2.48
2023-01-19T07:46:45.948Z,2.49
2023-01-19T07:49:13.408Z,2.49
2023-01-19T07:51:40.796Z,2.49
2023-01-19T07:54:08.541Z,2.55
2023-01-19T07:56:35.687Z,2.68
2023-01-19T07:59:03.382Z,2.70
2023-01-19T08:01:31.564Z,2.66
2023-01-19T08:03:59.037Z,2.72
2023-01-19T08:06:35.443Z,2.71
2023-01-19T08:09:05.562Z,2.70
2023-01-19T08:11:33.723Z,2.68
2023-01-19T08:14:01.015Z,2.61
2023-01-19T08:16:28.393Z,2.67
2023-01-19T08:18:56.481Z,2.68
2023-01-19T08:21:23.696Z,2.71
2023-01-19T08:23:58.110Z,2.73
2023-01-19T08:26:34.984Z,2.71
2023-01-19T08:29:04.827Z,2.70
2023-01-19T08:31:32.348Z,2.68
2023-01-19T08:33:59.506Z,2.67
2023-01-19T08:36:27.342Z,2.65
2023-01-19T08:38:54.464Z,2.69
2023-01-19T08:41:22.344Z,2.64
2023-01-19T08:43:50.270Z,2.61
2023-01-19T08:46:20.770Z,2.63
2023-01-19T08:48:54.511Z,2.55
2023-01-19T08:51:22.384Z,2.58
2023-01-19T08:53:49.605Z,2.47
2023-01-19T08:56:18.532Z,2.44
2023-01-19T08:58:59.446Z,2.46
2023-01-19T09:01:37.019Z,2.40
2023-01-19T09:04:04.924Z,2.44
2023-01-19T09:06:32.707Z,2.47
2023-01-19T09:09:00.562Z,2.56
2023-01-19T09:11:27.985Z,2.40
2023-01-19T09:13:55.206Z,2.55
2023-01-19T09:16:22.469Z,2.55
2023-01-19T09:18:49.958Z,2.46
2023-01-19T09:21:16.991Z,2.48
2023-01-19T09:23:44.619Z,2.53
2023-01-19T09:26:12.055Z,2.59
2023-01-19T09:28:39.523Z,2.57
2023-01-19T09:31:08.400Z,2.55
2023-01-19T09:33:36.155Z,2.53
2023-01-19T09:36:03.463Z,2.54
2023-01-19T09:38:32.836Z,2.54
2023-01-19T09:41:01.326Z,2.66
2023-01-19T09:43:48.807Z,2.56
2023-01-19T09:46:29.765Z,2.59
2023-01-19T09:49:01.455Z,2.50
2023-01-19T09:51:34.796Z,2.57
2023-01-19T09:54:07.899Z,2.43
2023-01-19T09:56:36.025Z,2.43
2023-01-19T09:59:29.556Z,2.42
2023-01-19T10:02:07.102Z,2.29
2023-01-19T10:04:40.302Z,2.27
2023-01-19T10:07:28.474Z,2.27
2023-01-19T10:10:17.405Z,2.32
2023-01-19T10:13:21.687Z,2.23
2023-01-19T10:15:55.232Z,2.31
2023-01-19T10:18:41.123Z,2.24
2023-01-19T10:21:10.549Z,2.24
2023-01-19T10:24:06.649Z,2.25
2023-01-19T10:26:38.505Z,2.23
2023-01-19T10:29:13.521Z,2.05
2023-01-19T10:31:44.753Z,2.12
2023-01-19T10:34:21.592Z,2.07
2023-01-19T10:37:02.599Z,2.18
2023-01-19T10:39:30.107Z,2.17
2023-01-19T10:42:01.003Z,2.21
2023-01-19T10:44:33.974Z,2.02
2023-01-19T10:47:02.296Z,2.01
2023-01-19T10:49:36.220Z,2.02
2023-01-19T10:52:05.252Z,1.87
2023-01-19T10:54:36.334Z,1.78
2023-01-19T10:57:07.585Z,1.77
2023-01-19T10:59:46.579Z,1.74
2023-01-19T11:02:28.789Z,1.78
2023-01-19T11:05:01.908Z,1.70
2023-01-19T11:07:33.985Z,1.69
2023-01-19T11:10:16.566Z,1.68
2023-01-19T11:12:59.049Z,1.75
2023-01-19T11:15:44.641Z,1.59
2023-01-19T11:18:27.252Z,1.69
2023-01-19T11:20:56.840Z,1.82
2023-01-19T11:23:43.016Z,1.87
2023-01-19T11:26:16.460Z,1.93
2023-01-19T11:28:48.717Z,1.82
2023-01-19T11:31:17.641Z,1.81
2023-01-19T11:33:45.563Z,1.93
2023-01-19T11:36:36.321Z,1.86
2023-01-19T11:39:12.651Z,1.90
2023-01-19T11:41:41.304Z,1.98
2023-01-19T11:44:26.508Z,2.04
2023-01-19T11:46:59.832Z,2.09
2023-01-19T11:49:33.185Z,2.19
2023-01-19T11:55:32.097Z,2.22
2023-01-19T11:57:59.720Z,2.25
2023-01-19T12:00:42.596Z,2.20
2023-01-19T12:03:39.405Z,2.22
2023-01-19T12:06:15.425Z,2.10
2023-01-19T12:08:48.495Z,2.03
2023-01-19T12:11:20.130Z,2.03
2023-01-19T12:13:48.587Z,1.96
2023-01-19T12:16:25.209Z,1.99
2023-01-19T12:19:00.033Z,2.03
2023-01-19T12:21:26.968Z,2.02
2023-01-19T12:23:57.305Z,1.94
2023-01-19T12:26:54.290Z,1.80
2023-01-19T12:29:25.978Z,1.77
2023-01-19T12:32:16.389Z,1.61
2023-01-19T12:34:48.286Z,1.76
2023-01-19T12:37:27.802Z,1.77
2023-01-19T12:39:57.856Z,1.80
2023-01-19T12:42:26.490Z,1.70
2023-01-19T12:45:16.486Z,1.70
2023-01-19T12:47:54.225Z,1.67
2023-01-19T12:50:24.144Z,1.63
2023-01-19T12:52:58.719Z,1.74
2023-01-19T12:55:36.263Z,1.79
2023-01-19T12:58:06.524Z,1.72
2023-01-19T13:00:44.795Z,1.80
2023-01-19T13:03:17.805Z,1.94
2023-01-19T13:05:44.751Z,2.08
2023-01-19T13:08:19.388Z,2.12
2023-01-19T13:11:10.752Z,2.11
2023-01-19T13:14:04.236Z,2.13
2023-01-19T13:16:31.264Z,2.14
2023-01-19T13:18:58.534Z,1.99
2023-01-19T13:21:28.529Z,1.96
2023-01-19T13:24:02.154Z,1.92
2023-01-19T13:26:52.041Z,1.87
2023-01-19T13:29:35.296Z,1.80
2023-01-19T13:32:06.492Z,1.82
2023-01-19T13:34:42.518Z,1.81
2023-01-19T13:37:20.013Z,1.96
2023-01-19T13:39:50.162Z,1.89
2023-01-19T13:42:40.039Z,1.83
2023-01-19T13:45:28.331Z,1.95
2023-01-19T13:47:58.683Z,2.03
2023-01-19T13:50:40.207Z,2.06
2023-01-19T13:53:19.063Z,2.05
2023-01-19T13:55:48.162Z,2.04
2023-01-19T13:58:23.457Z,2.04
2023-01-19T14:00:50.681Z,1.98
2023-01-19T14:03:23.048Z,1.89
2023-01-19T14:05:52.485Z,1.85
2023-01-19T14:08:21.640Z,1.77
2023-01-19T14:10:54.740Z,1.78
2023-01-19T14:13:31.121Z,1.81
2023-01-19T14:16:06.615Z,1.76
2023-01-19T14:18:35.384Z,1.61
2023-01-19T14:21:15.750Z,1.62
2023-01-19T14:23:43.137Z,1.63
2023-01-19T14:26:38.007Z,1.65
2023-01-19T14:29:17.291Z,1.61
2023-01-19T14:31:53.195Z,1.51
2023-01-19T14:34:34.162Z,1.53
2023-01-19T14:37:03.477Z,1.50
2023-01-19T14:39:35.864Z,1.44
2023-01-19T14:42:06.884Z,1.40
2023-01-19T14:44:37.113Z,1.30
2023-01-19T14:47:05.959Z,1.35
2023-01-19T14:49:47.547Z,1.38
2023-01-19T14:52:33.776Z,1.40
2023-01-19T14:55:03.912Z,1.33
2023-01-19T14:57:30.956Z,1.41
2023-01-19T14:59:58.076Z,1.49
2023-01-19T15:02:25.648Z,1.53
2023-01-19T15:04:55.429Z,1.53
2023-01-19T15:07:25.104Z,1.54
2023-01-19T15:09:52.835Z,1.51
2023-01-19T15:12:24.065Z,1.49
2023-01-19T15:14:51.155Z,1.47
2023-01-19T15:17:25.652Z,1.46
2023-01-19T15:19:56.194Z,1.38
2023-01-19T15:22:28.795Z,1.35
2023-01-19T15:24:59.999Z,1.32
2023-01-19T15:27:27.526Z,1.35
2023-01-19T15:29:54.653Z,1.30
2023-01-19T15:32:21.719Z,1.28
2023-01-19T15:34:49.118Z,1.30
2023-01-19T15:37:16.167Z,1.33
2023-01-19T15:39:43.166Z,1.31
2023-01-19T15:42:14.476Z,1.23
2023-01-19T15:44:41.521Z,1.21
2023-01-19T15:47:09.841Z,1.16
2023-01-19T15:49:37.191Z,1.22
2023-01-19T15:52:04.379Z,1.16
2023-01-19T15:54:31.404Z,1.16
2023-01-19T15:56:58.791Z,1.22
2023-01-19T15:59:26.002Z,1.11
2023-01-19T16:01:53.135Z,1.16
2023-01-19T16:04:20.564Z,1.21
2023-01-19T16:06:47.828Z,1.16
2023-01-19T16:09:18.439Z,1.19
2023-01-19T16:11:46.450Z,1.25
2023-01-19T16:14:14.169Z,1.26
2023-01-19T16:16:44.865Z,1.28
2023-01-19T16:19:14.632Z,1.31
2023-01-19T16:21:43.878Z,1.31
2023-01-19T16:24:10.890Z,1.35
2023-01-19T16:26:38.255Z,1.41
2023-01-19T16:29:10.967Z,1.33
2023-01-19T16:31:42.678Z,1.45
2023-01-19T16:34:10.157Z,1.38
2023-01-19T16:36:40.583Z,1.37
2023-01-19T16:39:11.766Z,1.33
2023-01-19T16:41:39.429Z,1.35
2023-01-19T16:44:07.351Z,1.36
2023-01-19T16:46:37.168Z,1.35
2023-01-19T16:49:07.329Z,1.36
2023-01-19T16:51:34.659Z,1.30
2023-01-19T16:54:01.966Z,1.28
2023-01-19T16:56:29.011Z,1.25
2023-01-19T16:58:57.798Z,1.16
2023-01-19T17:01:27.199Z,1.33
2023-01-19T17:03:55.231Z,1.35
2023-01-19T17:06:24.094Z,1.39
2023-01-19T17:08:52.490Z,1.37
2023-01-19T17:11:22.861Z,1.39
2023-01-19T17:13:54.516Z,1.34
2023-01-19T17:16:22.740Z,1.24
2023-01-19T17:18:50.739Z,1.24
2023-01-19T17:21:17.978Z,1.14
2023-01-19T17:23:47.253Z,1.26
2023-01-19T17:26:15.755Z,1.25
2023-01-19T17:28:43.604Z,1.19
2023-01-19T17:31:13.668Z,1.17
2023-01-19T17:33:44.386Z,1.14
2023-01-19T17:36:14.251Z,1.00
2023-01-19T17:38:42.239Z,1.00
2023-01-19T17:41:29.462Z,1.12
2023-01-19T17:43:57.624Z,1.11
2023-01-19T17:46:26.517Z,1.07
2023-01-19T17:49:02.405Z,1.01
2023-01-19T17:51:31.164Z,0.97
2023-01-19T17:53:58.770Z,0.96
2023-01-19T17:56:29.727Z,1.00
2023-01-19T17:58:58.341Z,1.00
2023-01-19T18:01:27.928Z,1.03
2023-01-19T18:03:56.473Z,1.05
2023-01-19T18:06:23.961Z,1.06
2023-01-19T18:08:51.285Z,1.04
2023-01-19T18:11:22.527Z,1.07
2023-01-19T18:13:50.873Z,0.93
2023-01-19T18:16:21.784Z,0.96
2023-01-19T18:18:50.181Z,0.97
2023-01-19T18:21:18.095Z,1.00
2023-01-19T18:23:45.781Z,0.94
2023-01-19T18:26:19.972Z,1.07
2023-01-19T18:28:48.203Z,0.95
2023-01-19T18:31:19.113Z,0.94
2023-01-19T18:33:47.910Z,1.01
2023-01-19T18:36:16.955Z,1.06
2023-01-19T18:38:44.671Z,0.93
2023-01-19T18:41:13.083Z,0.94
2023-01-19T18:43:40.495Z,0.91
2023-01-19T18:46:08.241Z,1.02
2023-01-19T18:48:37.875Z,0.86
2023-01-19T18:51:09.754Z,0.81
2023-01-19T18:53:37.642Z,0.89
2023-01-19T18:56:05.855Z,0.89
2023-01-19T18:58:33.992Z,1.01
2023-01-19T19:01:01.748Z,0.96
2023-01-19T19:03:29.766Z,1.00
2023-01-19T19:05:56.928Z,1.09
2023-01-19T19:08:24.324Z,0.97
2023-01-19T19:10:51.671Z,1.04
2023-01-19T19:13:21.818Z,1.02
2023-01-19T19:15:49.224Z,1.00
2023-01-19T19:18:16.668Z,1.01
2023-01-19T19:20:44.325Z,0.96
2023-01-19T19:23:11.968Z,1.06
2023-01-19T19:25:39.382Z,0.94
2023-01-19T19:28:06.736Z,1.06
2023-01-19T19:30:35.653Z,0.87
2023-01-19T19:33:02.999Z,0.90
2023-01-19T19:35:30.340Z,1.02
2023-01-19T19:37:57.778Z,1.02
2023-01-19T19:40:27.014Z,0.96
2023-01-19T19:42:54.111Z,0.97
2023-01-19T19:45:21.223Z,0.90
2023-01-19T19:47:48.619Z,0.94
2023-01-19T19:50:16.060Z,0.92
2023-01-19T19:52:43.299Z,0.90
2023-01-19T19:55:11.117Z,0.94
2023-01-19T19:57:38.362Z,0.91
2023-01-19T20:00:06.629Z,0.87
2023-01-19T20:02:36.771Z,0.87
2023-01-19T20:05:04.794Z,0.97
2023-01-19T20:07:34.637Z,0.95
2023-01-19T20:10:01.749Z,0.92
2023-01-19T20:12:29.099Z,0.93
2023-01-19T20:14:56.132Z,0.84
2023-01-19T20:17:24.697Z,0.88
2023-01-19T20:19:52.133Z,0.82
2023-01-19T20:22:19.229Z,0.87
2023-01-19T20:24:46.407Z,0.83
2023-01-19T20:27:13.775Z,0.86
2023-01-19T20:29:40.944Z,0.90
2023-01-19T20:32:08.199Z,0.80
2023-01-19T20:34:36.103Z,0.73
2023-01-19T20:37:04.713Z,0.67
2023-01-19T20:39:35.349Z,0.73
2023-01-19T20:42:02.788Z,0.68
2023-01-19T20:44:30.306Z,0.66
2023-01-19T20:46:57.389Z,0.59
2023-01-19T20:49:27.119Z,0.56
2023-01-19T20:51:54.602Z,0.62
2023-01-19T20:54:24.597Z,0.59
2023-01-19T20:56:52.011Z,0.50
2023-01-19T20:59:19.224Z,0.54
2023-01-19T21:01:46.530Z,0.40
2023-01-19T21:04:14.602Z,0.45
2023-01-19T21:06:42.022Z,0.42
2023-01-19T21:09:10.463Z,0.42
2023-01-19T21:11:38.552Z,0.50
2023-01-19T21:14:07.169Z,0.53
2023-01-19T21:16:35.042Z,0.54
2023-01-19T21:19:03.082Z,0.52
2023-01-19T21:21:31.627Z,0.49
2023-01-19T21:24:00.984Z,0.51
2023-01-19T21:26:33.412Z,0.50
2023-01-19T21:29:01.709Z,0.46
2023-01-19T21:31:29.933Z,0.45
2023-01-19T21:33:57.869Z,0.45
2023-01-19T21:36:25.124Z,0.36
2023-01-19T21:38:52.918Z,0.49
2023-01-19T21:41:20.194Z,0.34
2023-01-19T21:43:47.628Z,0.36
2023-01-19T21:46:19.547Z,0.36
2023-01-19T21:48:47.368Z,0.31
2023-01-19T21:51:15.785Z,0.41
2023-01-19T21:53:42.897Z,0.38
2023-01-19T21:56:11.265Z,0.39
2023-01-19T21:58:39.040Z,0.46
2023-01-19T22:01:15.385Z,0.58
2023-01-19T22:03:44.976Z,0.59
2023-01-19T22:06:14.230Z,0.63
2023-01-19T22:08:41.797Z,0.64
2023-01-19T22:11:11.757Z,0.59
2023-01-19T22:13:39.654Z,0.61
2023-01-19T22:16:10.031Z,0.56
2023-01-19T22:18:43.001Z,0.55
2023-01-19T22:21:12.279Z,0.63
2023-01-19T22:23:40.591Z,0.64
2023-01-19T22:26:09.853Z,0.51
2023-01-19T22:28:37.639Z,0.55
2023-01-19T22:31:06.337Z,0.64
2023-01-19T22:33:33.540Z,0.59
2023-01-19T22:36:21.525Z,0.53
2023-01-19T22:38:59.753Z,0.63
2023-01-19T22:41:32.030Z,0.69
2023-01-19T22:44:01.731Z,0.66
2023-01-19T22:46:31.285Z,0.60
2023-01-19T22:48:59.154Z,0.47
2023-01-19T22:51:30.493Z,0.49
2023-01-19T22:53:57.767Z,0.53
2023-01-19T22:56:27.187Z,0.60
2023-01-19T22:58:55.314Z,0.57
2023-01-19T23:01:24.718Z,0.63
2023-01-19T23:03:52.479Z,0.67
2023-01-19T23:06:25.841Z,0.68
2023-01-19T23:08:55.341Z,0.73
2023-01-19T23:11:25.891Z,0.67
2023-01-19T23:13:53.524Z,0.61
2023-01-19T23:16:20.712Z,0.51
2023-01-19T23:18:51.937Z,0.41
2023-01-19T23:21:21.621Z,0.36
2023-01-19T23:23:49.211Z,0.46
2023-01-19T23:26:18.523Z,0.41
2023-01-19T23:28:46.724Z,0.41
2023-01-19T23:31:18.736Z,0.30
2023-01-19T23:33:45.888Z,0.32
2023-01-19T23:36:14.751Z,0.30
2023-01-19T23:38:42.751Z,0.17
2023-01-19T23:41:10.209Z,0.17
2023-01-19T23:43:37.645Z,0.07
2023-01-19T23:46:06.684Z,0.21
2023-01-19T23:48:34.718Z,0.19
2023-01-19T23:51:25.889Z,0.22
2023-01-19T23:53:53.006Z,0.26
2023-01-19T23:56:23.920Z,0.13
2023-01-19T23:59:00.803Z,0.21
